sensor_id;sensor_type;location;lat;lon;timestamp;temperature;humidity
4002;DHT22;2015;48.670;9.060;2023-07-13T00:00:26;18.90;99.90
4002;DHT22;2015;48.670;9.060;2023-07-13T00:02:58;18.90;99.90
4002;DHT22;2015;48.670;9.060;2023-07-13T00:05:30;18.90;99.90
4002;DHT22;2015;48.670;9.060;2023-07-13T00:08:02;18.80;99.90
4002;DHT22;2015;48.670;9.060;2023-07-13T00:10:39;18.80;99.90
4002;DHT22;2015;48.670;9.060;2023-07-13T00:13:11;18.80;99.90
4002;DHT22;2015;48.670;9.060;2023-07-13T00:15:43;18.80;99.90
4002;DHT22;2015;48.670;9.060;2023-07-13T00:18:14;18.80;99.90
4002;DHT22;2015;48.670;9.060;2023-07-13T00:20:46;18.80;99.90
4002;DHT22;2015;48.670;9.060;2023-07-13T00:23:18;18.80;99.90
4002;DHT22;2015;48.670;9.060;2023-07-13T00:25:50;18.80;99.90
4002;DHT22;2015;48.670;9.060;2023-07-13T00:28:23;18.70;99.90
4002;DHT22;2015;48.670;9.060;2023-07-13T00:30:55;18.70;99.90
4002;DHT22;2015;48.670;9.060;2023-07-13T00:33:28;18.60;99.90
4002;DHT22;2015;48.670;9.060;2023-07-13T00:36:00;18.60;99.90
4002;DHT22;2015;48.670;9.060;2023-07-13T00:38:32;18.60;99.90
4002;DHT22;2015;48.670;9.060;2023-07-13T00:41:04;18.50;99.90
4002;DHT22;2015;48.670;9.060;2023-07-13T00:43:36;18.40;99.90
4002;DHT22;2015;48.670;9.060;2023-07-13T00:46:32;18.40;99.90
4002;DHT22;2015;48.670;9.060;2023-07-13T00:49:07;18.30;99.90
4002;DHT22;2015;48.670;9.060;2023-07-13T00:51:59;18.30;99.90
4002;DHT22;2015;48.670;9.060;2023-07-13T00:54:38;18.30;99.90
4002;DHT22;2015;48.670;9.060;2023-07-13T00:57:14;18.20;99.90
4002;DHT22;2015;48.670;9.060;2023-07-13T00:59:58;18.20;99.90
4002;DHT22;2015;48.670;9.060;2023-07-13T01:02:30;18.10;99.90
4002;DHT22;2015;48.670;9.060;2023-07-13T01:05:12;18.00;99.90
4002;DHT22;2015;48.670;9.060;2023-07-13T01:07:46;18.00;99.90
4002;DHT22;2015;48.670;9.060;2023-07-13T01:10:23;17.90;99.90
4002;DHT22;2015;48.670;9.060;2023-07-13T01:12:55;17.80;99.90
4002;DHT22;2015;48.670;9.060;2023-07-13T01:15:45;17.90;99.90
4002;DHT22;2015;48.670;9.060;2023-07-13T01:18:23;17.90;99.90
4002;DHT22;2015;48.670;9.060;2023-07-13T01:21:04;17.90;99.90
4002;DHT22;2015;48.670;9.060;2023-07-13T01:23:36;17.90;99.90
4002;DHT22;2015;48.670;9.060;2023-07-13T01:26:08;18.00;99.90
4002;DHT22;2015;48.670;9.060;2023-07-13T01:28:40;17.90;99.90
4002;DHT22;2015;48.670;9.060;2023-07-13T01:31:12;17.90;99.90
4002;DHT22;2015;48.670;9.060;2023-07-13T01:33:43;17.90;99.90
4002;DHT22;2015;48.670;9.060;2023-07-13T01:36:15;17.80;99.90
4002;DHT22;2015;48.670;9.060;2023-07-13T01:38:47;17.80;99.90
4002;DHT22;2015;48.670;9.060;2023-07-13T01:41:19;17.80;99.90
4002;DHT22;2015;48.670;9.060;2023-07-13T01:43:51;17.70;99.90
4002;DHT22;2015;48.670;9.060;2023-07-13T01:46:23;17.70;99.90
4002;DHT22;2015;48.670;9.060;2023-07-13T01:48:55;17.60;99.90
4002;DHT22;2015;48.670;9.060;2023-07-13T01:51:26;17.50;99.90
4002;DHT22;2015;48.670;9.060;2023-07-13T01:53:58;17.40;99.90
4002;DHT22;2015;48.670;9.060;2023-07-13T01:56:30;17.20;99.90
4002;DHT22;2015;48.670;9.060;2023-07-13T01:59:02;17.10;99.90
4002;DHT22;2015;48.670;9.060;2023-07-13T02:01:34;17.00;99.90
4002;DHT22;2015;48.670;9.060;2023-07-13T02:04:06;16.90;99.90
4002;DHT22;2015;48.670;9.060;2023-07-13T02:06:37;16.80;99.90
4002;DHT22;2015;48.670;9.060;2023-07-13T02:09:09;16.70;99.90
4002;DHT22;2015;48.670;9.060;2023-07-13T02:11:41;16.70;99.90
4002;DHT22;2015;48.670;9.060;2023-07-13T02:14:13;16.60;99.90
4002;DHT22;2015;48.670;9.060;2023-07-13T02:16:46;16.60;99.90
4002;DHT22;2015;48.670;9.060;2023-07-13T02:19:20;16.50;99.90
4002;DHT22;2015;48.670;9.060;2023-07-13T02:21:52;16.50;99.90
4002;DHT22;2015;48.670;9.060;2023-07-13T02:24:23;16.40;99.90
4002;DHT22;2015;48.670;9.060;2023-07-13T02:26:55;16.40;99.90
4002;DHT22;2015;48.670;9.060;2023-07-13T02:29:27;16.30;99.90
4002;DHT22;2015;48.670;9.060;2023-07-13T02:31:59;16.30;99.90
4002;DHT22;2015;48.670;9.060;2023-07-13T02:34:31;16.30;99.90
4002;DHT22;2015;48.670;9.060;2023-07-13T02:37:04;16.20;99.90
4002;DHT22;2015;48.670;9.060;2023-07-13T02:39:36;16.20;99.90
4002;DHT22;2015;48.670;9.060;2023-07-13T02:42:08;16.20;99.90
4002;DHT22;2015;48.670;9.060;2023-07-13T02:44:39;16.10;99.90
4002;DHT22;2015;48.670;9.060;2023-07-13T02:47:12;16.10;99.90
4002;DHT22;2015;48.670;9.060;2023-07-13T02:49:44;16.10;99.90
4002;DHT22;2015;48.670;9.060;2023-07-13T02:52:16;16.00;99.90
4002;DHT22;2015;48.670;9.060;2023-07-13T02:54:48;16.00;99.90
4002;DHT22;2015;48.670;9.060;2023-07-13T02:57:20;16.00;99.90
4002;DHT22;2015;48.670;9.060;2023-07-13T02:59:52;16.00;99.90
4002;DHT22;2015;48.670;9.060;2023-07-13T03:02:24;16.00;99.90
4002;DHT22;2015;48.670;9.060;2023-07-13T03:04:56;15.90;99.90
4002;DHT22;2015;48.670;9.060;2023-07-13T03:07:28;15.90;99.90
4002;DHT22;2015;48.670;9.060;2023-07-13T03:10:01;15.90;99.90
4002;DHT22;2015;48.670;9.060;2023-07-13T03:12:33;15.80;99.90
4002;DHT22;2015;48.670;9.060;2023-07-13T03:15:05;15.80;99.90
4002;DHT22;2015;48.670;9.060;2023-07-13T03:17:37;15.70;99.90
4002;DHT22;2015;48.670;9.060;2023-07-13T03:20:09;15.70;99.90
4002;DHT22;2015;48.670;9.060;2023-07-13T03:22:41;15.70;99.90
4002;DHT22;2015;48.670;9.060;2023-07-13T03:25:13;15.70;99.90
4002;DHT22;2015;48.670;9.060;2023-07-13T03:27:45;15.70;99.90
4002;DHT22;2015;48.670;9.060;2023-07-13T03:30:17;15.70;99.90
4002;DHT22;2015;48.670;9.060;2023-07-13T03:32:49;15.70;99.90
4002;DHT22;2015;48.670;9.060;2023-07-13T03:35:21;15.70;99.90
4002;DHT22;2015;48.670;9.060;2023-07-13T03:37:52;15.80;99.90
4002;DHT22;2015;48.670;9.060;2023-07-13T03:40:25;15.80;99.90
4002;DHT22;2015;48.670;9.060;2023-07-13T03:42:57;15.90;99.90
4002;DHT22;2015;48.670;9.060;2023-07-13T03:45:29;15.90;99.90
4002;DHT22;2015;48.670;9.060;2023-07-13T03:48:01;15.90;99.90
4002;DHT22;2015;48.670;9.060;2023-07-13T03:50:33;16.00;99.90
4002;DHT22;2015;48.670;9.060;2023-07-13T03:53:05;15.90;99.90
4002;DHT22;2015;48.670;9.060;2023-07-13T03:55:36;16.00;99.90
4002;DHT22;2015;48.670;9.060;2023-07-13T03:58:29;16.00;99.90
4002;DHT22;2015;48.670;9.060;2023-07-13T04:01:03;16.00;99.90
4002;DHT22;2015;48.670;9.060;2023-07-13T04:03:36;16.00;99.90
4002;DHT22;2015;48.670;9.060;2023-07-13T04:06:16;16.00;99.90
4002;DHT22;2015;48.670;9.060;2023-07-13T04:08:55;16.00;99.90
4002;DHT22;2015;48.670;9.060;2023-07-13T04:11:29;16.00;99.90
4002;DHT22;2015;48.670;9.060;2023-07-13T04:14:01;16.10;99.90
4002;DHT22;2015;48.670;9.060;2023-07-13T04:16:33;16.20;99.90
4002;DHT22;2015;48.670;9.060;2023-07-13T04:19:05;16.20;99.90
4002;DHT22;2015;48.670;9.060;2023-07-13T04:21:37;16.30;99.90
4002;DHT22;2015;48.670;9.060;2023-07-13T04:24:09;16.40;99.90
4002;DHT22;2015;48.670;9.060;2023-07-13T04:26:40;16.40;99.90
4002;DHT22;2015;48.670;9.060;2023-07-13T04:29:12;16.50;99.90
4002;DHT22;2015;48.670;9.060;2023-07-13T04:31:44;16.50;99.90
4002;DHT22;2015;48.670;9.060;2023-07-13T04:34:16;16.50;99.90
4002;DHT22;2015;48.670;9.060;2023-07-13T04:36:48;16.60;99.90
4002;DHT22;2015;48.670;9.060;2023-07-13T04:39:21;16.60;99.90
4002;DHT22;2015;48.670;9.060;2023-07-13T04:41:53;16.60;99.90
4002;DHT22;2015;48.670;9.060;2023-07-13T04:44:26;16.60;99.90
4002;DHT22;2015;48.670;9.060;2023-07-13T04:46:58;16.60;99.90
4002;DHT22;2015;48.670;9.060;2023-07-13T04:49:30;16.60;99.90
4002;DHT22;2015;48.670;9.060;2023-07-13T04:52:02;16.70;99.90
4002;DHT22;2015;48.670;9.060;2023-07-13T04:54:34;16.70;99.90
4002;DHT22;2015;48.670;9.060;2023-07-13T04:57:06;16.70;99.90
4002;DHT22;2015;48.670;9.060;2023-07-13T04:59:38;16.80;99.90
4002;DHT22;2015;48.670;9.060;2023-07-13T05:02:10;16.90;99.90
4002;DHT22;2015;48.670;9.060;2023-07-13T05:04:42;16.90;99.90
4002;DHT22;2015;48.670;9.060;2023-07-13T05:07:14;17.00;99.90
4002;DHT22;2015;48.670;9.060;2023-07-13T05:09:46;17.10;99.90
4002;DHT22;2015;48.670;9.060;2023-07-13T05:12:18;17.10;99.90
4002;DHT22;2015;48.670;9.060;2023-07-13T05:14:49;17.20;99.90
4002;DHT22;2015;48.670;9.060;2023-07-13T05:17:21;17.30;99.90
4002;DHT22;2015;48.670;9.060;2023-07-13T05:19:53;17.40;99.90
4002;DHT22;2015;48.670;9.060;2023-07-13T05:22:25;17.50;99.90
4002;DHT22;2015;48.670;9.060;2023-07-13T05:24:57;17.70;99.90
4002;DHT22;2015;48.670;9.060;2023-07-13T05:27:30;17.80;99.90
4002;DHT22;2015;48.670;9.060;2023-07-13T05:30:03;18.00;99.90
4002;DHT22;2015;48.670;9.060;2023-07-13T05:32:35;18.10;99.90
4002;DHT22;2015;48.670;9.060;2023-07-13T05:35:08;18.20;99.90
4002;DHT22;2015;48.670;9.060;2023-07-13T05:37:40;18.30;99.90
4002;DHT22;2015;48.670;9.060;2023-07-13T05:40:12;18.30;99.90
4002;DHT22;2015;48.670;9.060;2023-07-13T05:42:43;18.30;99.90
4002;DHT22;2015;48.670;9.060;2023-07-13T05:45:15;18.30;99.90
4002;DHT22;2015;48.670;9.060;2023-07-13T05:47:47;18.40;99.90
4002;DHT22;2015;48.670;9.060;2023-07-13T05:50:19;18.40;99.90
4002;DHT22;2015;48.670;9.060;2023-07-13T05:52:51;18.40;99.90
4002;DHT22;2015;48.670;9.060;2023-07-13T05:55:24;18.50;99.90
4002;DHT22;2015;48.670;9.060;2023-07-13T05:57:55;18.50;99.90
4002;DHT22;2015;48.670;9.060;2023-07-13T06:00:29;18.50;99.90
4002;DHT22;2015;48.670;9.060;2023-07-13T06:03:01;18.50;99.90
4002;DHT22;2015;48.670;9.060;2023-07-13T06:05:34;18.60;99.90
4002;DHT22;2015;48.670;9.060;2023-07-13T06:08:07;18.60;99.90
4002;DHT22;2015;48.670;9.060;2023-07-13T06:10:39;18.60;99.90
4002;DHT22;2015;48.670;9.060;2023-07-13T06:13:11;18.70;99.90
4002;DHT22;2015;48.670;9.060;2023-07-13T06:15:42;18.70;99.90
4002;DHT22;2015;48.670;9.060;2023-07-13T06:18:14;18.70;99.90
4002;DHT22;2015;48.670;9.060;2023-07-13T06:20:46;18.50;99.90
4002;DHT22;2015;48.670;9.060;2023-07-13T06:23:18;18.60;99.90
4002;DHT22;2015;48.670;9.060;2023-07-13T06:25:50;18.60;99.90
4002;DHT22;2015;48.670;9.060;2023-07-13T06:28:22;18.70;99.90
4002;DHT22;2015;48.670;9.060;2023-07-13T06:30:54;18.80;99.90
4002;DHT22;2015;48.670;9.060;2023-07-13T06:33:26;19.10;99.90
4002;DHT22;2015;48.670;9.060;2023-07-13T06:35:58;19.40;99.90
4002;DHT22;2015;48.670;9.060;2023-07-13T06:38:30;19.50;99.90
4002;DHT22;2015;48.670;9.060;2023-07-13T06:41:03;19.60;99.90
4002;DHT22;2015;48.670;9.060;2023-07-13T06:43:35;19.90;99.90
4002;DHT22;2015;48.670;9.060;2023-07-13T06:46:07;20.10;99.90
4002;DHT22;2015;48.670;9.060;2023-07-13T06:48:39;20.20;99.90
4002;DHT22;2015;48.670;9.060;2023-07-13T06:51:11;20.10;99.90
4002;DHT22;2015;48.670;9.060;2023-07-13T06:53:43;20.10;99.90
4002;DHT22;2015;48.670;9.060;2023-07-13T06:56:15;20.10;99.90
4002;DHT22;2015;48.670;9.060;2023-07-13T06:58:47;20.10;99.90
4002;DHT22;2015;48.670;9.060;2023-07-13T07:01:19;20.20;99.90
4002;DHT22;2015;48.670;9.060;2023-07-13T07:03:51;20.20;99.90
4002;DHT22;2015;48.670;9.060;2023-07-13T07:06:23;20.10;99.90
4002;DHT22;2015;48.670;9.060;2023-07-13T07:08:55;20.10;99.90
4002;DHT22;2015;48.670;9.060;2023-07-13T07:11:27;20.00;99.90
4002;DHT22;2015;48.670;9.060;2023-07-13T07:13:59;19.90;99.90
4002;DHT22;2015;48.670;9.060;2023-07-13T07:16:30;19.90;99.90
4002;DHT22;2015;48.670;9.060;2023-07-13T07:19:02;20.00;99.90
4002;DHT22;2015;48.670;9.060;2023-07-13T07:21:34;20.10;99.90
4002;DHT22;2015;48.670;9.060;2023-07-13T07:24:06;20.10;99.90
4002;DHT22;2015;48.670;9.060;2023-07-13T07:26:39;20.20;99.90
4002;DHT22;2015;48.670;9.060;2023-07-13T07:29:13;20.30;99.90
4002;DHT22;2015;48.670;9.060;2023-07-13T07:31:48;20.40;99.90
4002;DHT22;2015;48.670;9.060;2023-07-13T07:34:36;20.50;99.90
4002;DHT22;2015;48.670;9.060;2023-07-13T07:37:11;20.60;99.90
4002;DHT22;2015;48.670;9.060;2023-07-13T07:39:46;20.70;99.90
4002;DHT22;2015;48.670;9.060;2023-07-13T07:42:38;20.80;99.90
4002;DHT22;2015;48.670;9.060;2023-07-13T07:45:10;20.70;99.90
4002;DHT22;2015;48.670;9.060;2023-07-13T07:47:43;20.60;99.90
4002;DHT22;2015;48.670;9.060;2023-07-13T07:50:15;20.60;99.90
4002;DHT22;2015;48.670;9.060;2023-07-13T07:52:47;20.70;99.90
4002;DHT22;2015;48.670;9.060;2023-07-13T07:55:18;20.90;99.90
4002;DHT22;2015;48.670;9.060;2023-07-13T07:57:53;21.10;99.90
4002;DHT22;2015;48.670;9.060;2023-07-13T08:00:28;21.30;99.90
4002;DHT22;2015;48.670;9.060;2023-07-13T08:03:22;21.50;99.90
4002;DHT22;2015;48.670;9.060;2023-07-13T08:05:57;21.50;99.90
4002;DHT22;2015;48.670;9.060;2023-07-13T08:08:49;21.50;99.90
4002;DHT22;2015;48.670;9.060;2023-07-13T08:11:21;21.60;99.90
4002;DHT22;2015;48.670;9.060;2023-07-13T08:13:56;21.60;99.90
4002;DHT22;2015;48.670;9.060;2023-07-13T08:16:28;21.60;99.90
4002;DHT22;2015;48.670;9.060;2023-07-13T08:19:00;21.70;99.90
4002;DHT22;2015;48.670;9.060;2023-07-13T08:21:32;21.70;99.90
4002;DHT22;2015;48.670;9.060;2023-07-13T08:24:04;21.70;99.90
4002;DHT22;2015;48.670;9.060;2023-07-13T08:26:36;21.60;99.90
4002;DHT22;2015;48.670;9.060;2023-07-13T08:29:08;21.70;99.90
4002;DHT22;2015;48.670;9.060;2023-07-13T08:31:40;21.80;99.90
4002;DHT22;2015;48.670;9.060;2023-07-13T08:34:11;21.80;99.90
4002;DHT22;2015;48.670;9.060;2023-07-13T08:36:47;21.90;99.90
4002;DHT22;2015;48.670;9.060;2023-07-13T08:39:18;22.10;99.90
4002;DHT22;2015;48.670;9.060;2023-07-13T08:41:56;22.80;99.90
4002;DHT22;2015;48.670;9.060;2023-07-13T08:44:40;24.00;97.70
4002;DHT22;2015;48.670;9.060;2023-07-13T08:47:16;25.20;94.30
4002;DHT22;2015;48.670;9.060;2023-07-13T08:49:48;26.30;91.80
4002;DHT22;2015;48.670;9.060;2023-07-13T08:52:32;26.90;90.40
4002;DHT22;2015;48.670;9.060;2023-07-13T08:55:15;26.70;91.20
4002;DHT22;2015;48.670;9.060;2023-07-13T08:57:53;27.70;87.00
4002;DHT22;2015;48.670;9.060;2023-07-13T09:01:18;28.80;83.20
4002;DHT22;2015;48.670;9.060;2023-07-13T09:03:37;29.50;81.60
4002;DHT22;2015;48.670;9.060;2023-07-13T09:06:13;30.70;75.60
4002;DHT22;2015;48.670;9.060;2023-07-13T09:08:55;31.40;70.90
4002;DHT22;2015;48.670;9.060;2023-07-13T09:11:36;30.90;72.30
4002;DHT22;2015;48.670;9.060;2023-07-13T09:17:04;29.10;74.60
4002;DHT22;2015;48.670;9.060;2023-07-13T09:19:37;29.70;74.40
4002;DHT22;2015;48.670;9.060;2023-07-13T09:22:15;30.50;71.70
4002;DHT22;2015;48.670;9.060;2023-07-13T09:24:53;32.00;69.10
4002;DHT22;2015;48.670;9.060;2023-07-13T09:27:30;32.60;67.60
4002;DHT22;2015;48.670;9.060;2023-07-13T09:30:12;33.20;64.10
4002;DHT22;2015;48.670;9.060;2023-07-13T09:32:52;33.90;61.70
4002;DHT22;2015;48.670;9.060;2023-07-13T09:35:26;32.80;61.90
4002;DHT22;2015;48.670;9.060;2023-07-13T09:38:21;31.90;60.70
4002;DHT22;2015;48.670;9.060;2023-07-13T09:44:14;30.10;65.00
4002;DHT22;2015;48.670;9.060;2023-07-13T09:46:52;29.10;71.80
4002;DHT22;2015;48.670;9.060;2023-07-13T09:49:29;29.00;67.40
4002;DHT22;2015;48.670;9.060;2023-07-13T09:52:06;28.20;70.00
4002;DHT22;2015;48.670;9.060;2023-07-13T09:54:38;27.30;76.40
4002;DHT22;2015;48.670;9.060;2023-07-13T09:57:17;26.30;77.00
4002;DHT22;2015;48.670;9.060;2023-07-13T09:59:50;25.60;79.00
4002;DHT22;2015;48.670;9.060;2023-07-13T10:07:32;26.90;79.80
4002;DHT22;2015;48.670;9.060;2023-07-13T10:10:14;27.60;73.20
4002;DHT22;2015;48.670;9.060;2023-07-13T10:12:47;27.60;72.90
4002;DHT22;2015;48.670;9.060;2023-07-13T10:15:24;27.30;75.50
4002;DHT22;2015;48.670;9.060;2023-07-13T10:17:57;27.50;77.50
4002;DHT22;2015;48.670;9.060;2023-07-13T10:20:30;27.90;74.40
4002;DHT22;2015;48.670;9.060;2023-07-13T10:23:05;27.80;73.20
4002;DHT22;2015;48.670;9.060;2023-07-13T10:25:43;28.30;74.00
4002;DHT22;2015;48.670;9.060;2023-07-13T10:28:27;28.90;72.40
4002;DHT22;2015;48.670;9.060;2023-07-13T10:31:01;29.30;69.20
4002;DHT22;2015;48.670;9.060;2023-07-13T10:33:34;29.10;73.70
4002;DHT22;2015;48.670;9.060;2023-07-13T10:39:04;28.90;67.40
4002;DHT22;2015;48.670;9.060;2023-07-13T10:41:39;28.20;68.80
4002;DHT22;2015;48.670;9.060;2023-07-13T10:44:25;28.00;68.90
4002;DHT22;2015;48.670;9.060;2023-07-13T10:47:10;27.90;71.50
4002;DHT22;2015;48.670;9.060;2023-07-13T10:49:43;27.80;70.30
4002;DHT22;2015;48.670;9.060;2023-07-13T10:52:42;27.70;71.70
4002;DHT22;2015;48.670;9.060;2023-07-13T10:55:38;27.90;73.20
4002;DHT22;2015;48.670;9.060;2023-07-13T11:03:47;27.30;74.50
4002;DHT22;2015;48.670;9.060;2023-07-13T11:08:56;29.40;70.10
4002;DHT22;2015;48.670;9.060;2023-07-13T11:11:37;30.30;66.30
4002;DHT22;2015;48.670;9.060;2023-07-13T11:23:30;29.30;69.10
4002;DHT22;2015;48.670;9.060;2023-07-13T11:25:43;28.40;69.80
4002;DHT22;2015;48.670;9.060;2023-07-13T11:28:23;28.50;70.60
4002;DHT22;2015;48.670;9.060;2023-07-13T11:36:16;28.00;69.20
4002;DHT22;2015;48.670;9.060;2023-07-13T11:39:04;27.90;71.90
4002;DHT22;2015;48.670;9.060;2023-07-13T11:41:43;27.60;72.10
4002;DHT22;2015;48.670;9.060;2023-07-13T11:44:19;27.40;69.90
4002;DHT22;2015;48.670;9.060;2023-07-13T11:46:56;27.20;72.80
4002;DHT22;2015;48.670;9.060;2023-07-13T11:49:31;27.00;73.20
4002;DHT22;2015;48.670;9.060;2023-07-13T11:52:04;26.90;74.30
4002;DHT22;2015;48.670;9.060;2023-07-13T11:54:57;26.60;73.20
4002;DHT22;2015;48.670;9.060;2023-07-13T11:57:35;25.90;75.10
4002;DHT22;2015;48.670;9.060;2023-07-13T12:00:18;25.60;75.40
4002;DHT22;2015;48.670;9.060;2023-07-13T12:02:54;25.60;73.90
4002;DHT22;2015;48.670;9.060;2023-07-13T12:05:27;25.40;72.50
4002;DHT22;2015;48.670;9.060;2023-07-13T12:07:59;25.40;73.80
4002;DHT22;2015;48.670;9.060;2023-07-13T12:10:39;25.00;76.40
4002;DHT22;2015;48.670;9.060;2023-07-13T12:13:12;25.00;77.90
4002;DHT22;2015;48.670;9.060;2023-07-13T12:15:45;25.10;79.00
4002;DHT22;2015;48.670;9.060;2023-07-13T12:18:20;25.40;76.20
4002;DHT22;2015;48.670;9.060;2023-07-13T12:20:56;25.50;76.40
4002;DHT22;2015;48.670;9.060;2023-07-13T12:23:34;25.40;75.40
4002;DHT22;2015;48.670;9.060;2023-07-13T12:26:07;25.60;77.10
4002;DHT22;2015;48.670;9.060;2023-07-13T12:28:55;25.20;77.20
4002;DHT22;2015;48.670;9.060;2023-07-13T12:34:10;25.40;78.90
4002;DHT22;2015;48.670;9.060;2023-07-13T12:36:53;25.30;79.20
4002;DHT22;2015;48.670;9.060;2023-07-13T12:39:37;25.20;76.60
4002;DHT22;2015;48.670;9.060;2023-07-13T12:42:27;25.10;77.40
4002;DHT22;2015;48.670;9.060;2023-07-13T12:45:22;25.30;75.60
4002;DHT22;2015;48.670;9.060;2023-07-13T12:47:57;25.70;75.70
4002;DHT22;2015;48.670;9.060;2023-07-13T12:50:50;25.60;74.80
4002;DHT22;2015;48.670;9.060;2023-07-13T12:53:29;25.50;77.10
4002;DHT22;2015;48.670;9.060;2023-07-13T12:56:04;25.30;74.70
4002;DHT22;2015;48.670;9.060;2023-07-13T12:58:39;25.20;78.00
4002;DHT22;2015;48.670;9.060;2023-07-13T13:01:14;25.20;78.20
4002;DHT22;2015;48.670;9.060;2023-07-13T13:03:49;25.20;76.50
4002;DHT22;2015;48.670;9.060;2023-07-13T13:06:28;25.30;77.20
4002;DHT22;2015;48.670;9.060;2023-07-13T13:09:00;25.60;76.50
4002;DHT22;2015;48.670;9.060;2023-07-13T13:11:32;26.00;74.40
4002;DHT22;2015;48.670;9.060;2023-07-13T13:14:04;26.20;73.40
4002;DHT22;2015;48.670;9.060;2023-07-13T13:16:47;26.40;73.40
4002;DHT22;2015;48.670;9.060;2023-07-13T13:19:24;26.10;74.30
4002;DHT22;2015;48.670;9.060;2023-07-13T13:21:56;25.90;73.10
4002;DHT22;2015;48.670;9.060;2023-07-13T13:24:29;25.50;74.90
4002;DHT22;2015;48.670;9.060;2023-07-13T13:27:01;25.30;75.20
4002;DHT22;2015;48.670;9.060;2023-07-13T13:29:36;25.40;76.10
4002;DHT22;2015;48.670;9.060;2023-07-13T13:32:12;25.50;74.70
4002;DHT22;2015;48.670;9.060;2023-07-13T13:34:44;25.40;75.60
4002;DHT22;2015;48.670;9.060;2023-07-13T13:37:22;25.40;75.30
4002;DHT22;2015;48.670;9.060;2023-07-13T13:39:54;25.40;75.70
4002;DHT22;2015;48.670;9.060;2023-07-13T13:42:39;25.40;75.30
4002;DHT22;2015;48.670;9.060;2023-07-13T13:45:12;25.30;74.50
4002;DHT22;2015;48.670;9.060;2023-07-13T13:47:44;25.20;75.30
4002;DHT22;2015;48.670;9.060;2023-07-13T13:50:22;25.10;75.80
4002;DHT22;2015;48.670;9.060;2023-07-13T13:52:54;25.10;75.80
4002;DHT22;2015;48.670;9.060;2023-07-13T13:55:25;25.10;76.80
4002;DHT22;2015;48.670;9.060;2023-07-13T13:57:57;25.20;75.60
4002;DHT22;2015;48.670;9.060;2023-07-13T14:00:29;25.40;75.40
4002;DHT22;2015;48.670;9.060;2023-07-13T14:03:01;25.80;69.60
4002;DHT22;2015;48.670;9.060;2023-07-13T14:05:33;26.00;67.90
4002;DHT22;2015;48.670;9.060;2023-07-13T14:08:15;26.10;67.50
4002;DHT22;2015;48.670;9.060;2023-07-13T14:10:50;25.90;69.30
4002;DHT22;2015;48.670;9.060;2023-07-13T14:13:38;25.90;69.70
4002;DHT22;2015;48.670;9.060;2023-07-13T14:16:14;25.90;67.90
4002;DHT22;2015;48.670;9.060;2023-07-13T14:18:47;25.80;67.20
4002;DHT22;2015;48.670;9.060;2023-07-13T14:21:21;25.80;68.10
4002;DHT22;2015;48.670;9.060;2023-07-13T14:23:53;25.80;69.30
4002;DHT22;2015;48.670;9.060;2023-07-13T14:26:26;25.70;69.90
4002;DHT22;2015;48.670;9.060;2023-07-13T14:28:58;25.70;70.60
4002;DHT22;2015;48.670;9.060;2023-07-13T14:31:30;25.60;69.20
4002;DHT22;2015;48.670;9.060;2023-07-13T14:34:02;25.60;68.60
4002;DHT22;2015;48.670;9.060;2023-07-13T14:36:39;25.70;68.90
4002;DHT22;2015;48.670;9.060;2023-07-13T14:39:14;25.80;70.70
4002;DHT22;2015;48.670;9.060;2023-07-13T14:41:51;25.60;72.00
4002;DHT22;2015;48.670;9.060;2023-07-13T14:44:28;25.60;71.90
4002;DHT22;2015;48.670;9.060;2023-07-13T14:47:05;25.30;73.80
4002;DHT22;2015;48.670;9.060;2023-07-13T14:49:42;25.20;73.90
4002;DHT22;2015;48.670;9.060;2023-07-13T14:52:17;25.10;75.10
4002;DHT22;2015;48.670;9.060;2023-07-13T14:54:50;24.90;76.20
4002;DHT22;2015;48.670;9.060;2023-07-13T14:57:21;25.10;75.70
4002;DHT22;2015;48.670;9.060;2023-07-13T14:59:53;25.30;76.40
4002;DHT22;2015;48.670;9.060;2023-07-13T15:02:32;25.30;75.40
4002;DHT22;2015;48.670;9.060;2023-07-13T15:05:22;25.50;76.30
4002;DHT22;2015;48.670;9.060;2023-07-13T15:07:59;25.70;75.30
4002;DHT22;2015;48.670;9.060;2023-07-13T15:10:32;25.60;74.40
4002;DHT22;2015;48.670;9.060;2023-07-13T15:13:19;25.60;78.20
4002;DHT22;2015;48.670;9.060;2023-07-13T15:15:51;25.50;77.30
4002;DHT22;2015;48.670;9.060;2023-07-13T15:18:25;25.40;77.50
4002;DHT22;2015;48.670;9.060;2023-07-13T15:20:59;25.20;76.90
4002;DHT22;2015;48.670;9.060;2023-07-13T15:23:34;24.90;77.40
4002;DHT22;2015;48.670;9.060;2023-07-13T15:26:11;24.80;78.70
4002;DHT22;2015;48.670;9.060;2023-07-13T15:28:45;24.70;77.70
4002;DHT22;2015;48.670;9.060;2023-07-13T15:31:22;24.60;78.10
4002;DHT22;2015;48.670;9.060;2023-07-13T15:33:56;24.70;77.80
4002;DHT22;2015;48.670;9.060;2023-07-13T15:36:28;24.70;79.70
4002;DHT22;2015;48.670;9.060;2023-07-13T15:39:03;24.70;77.80
4002;DHT22;2015;48.670;9.060;2023-07-13T15:41:35;24.70;76.00
4002;DHT22;2015;48.670;9.060;2023-07-13T15:44:27;24.60;77.80
4002;DHT22;2015;48.670;9.060;2023-07-13T15:47:00;24.60;78.00
4002;DHT22;2015;48.670;9.060;2023-07-13T15:49:32;24.70;78.20
4002;DHT22;2015;48.670;9.060;2023-07-13T15:52:04;24.60;76.90
4002;DHT22;2015;48.670;9.060;2023-07-13T15:54:38;24.40;78.20
4002;DHT22;2015;48.670;9.060;2023-07-13T15:57:10;24.50;75.80
4002;DHT22;2015;48.670;9.060;2023-07-13T15:59:44;24.40;78.10
4002;DHT22;2015;48.670;9.060;2023-07-13T16:02:18;24.40;77.10
4002;DHT22;2015;48.670;9.060;2023-07-13T16:04:50;24.40;76.00
4002;DHT22;2015;48.670;9.060;2023-07-13T16:07:22;24.40;78.70
4002;DHT22;2015;48.670;9.060;2023-07-13T16:09:54;24.20;78.30
4002;DHT22;2015;48.670;9.060;2023-07-13T16:12:26;24.20;79.10
4002;DHT22;2015;48.670;9.060;2023-07-13T16:14:57;24.20;78.10
4002;DHT22;2015;48.670;9.060;2023-07-13T16:17:29;24.20;78.00
4002;DHT22;2015;48.670;9.060;2023-07-13T16:20:02;24.20;79.40
4002;DHT22;2015;48.670;9.060;2023-07-13T16:22:35;24.10;78.50
4002;DHT22;2015;48.670;9.060;2023-07-13T16:25:21;24.00;78.40
4002;DHT22;2015;48.670;9.060;2023-07-13T16:27:54;23.80;78.80
4002;DHT22;2015;48.670;9.060;2023-07-13T16:30:32;23.70;79.20
4002;DHT22;2015;48.670;9.060;2023-07-13T16:33:05;23.80;78.40
4002;DHT22;2015;48.670;9.060;2023-07-13T16:35:40;23.90;79.80
4002;DHT22;2015;48.670;9.060;2023-07-13T16:38:19;23.90;78.80
4002;DHT22;2015;48.670;9.060;2023-07-13T16:40:51;23.80;79.60
4002;DHT22;2015;48.670;9.060;2023-07-13T16:43:23;23.70;80.50
4002;DHT22;2015;48.670;9.060;2023-07-13T16:45:57;23.70;80.00
4002;DHT22;2015;48.670;9.060;2023-07-13T16:48:34;23.70;80.80
4002;DHT22;2015;48.670;9.060;2023-07-13T16:51:07;23.80;79.10
4002;DHT22;2015;48.670;9.060;2023-07-13T16:53:39;23.70;80.30
4002;DHT22;2015;48.670;9.060;2023-07-13T16:56:17;23.70;80.70
4002;DHT22;2015;48.670;9.060;2023-07-13T16:58:50;23.60;79.90
4002;DHT22;2015;48.670;9.060;2023-07-13T17:01:22;23.60;79.30
4002;DHT22;2015;48.670;9.060;2023-07-13T17:03:54;23.50;80.80
4002;DHT22;2015;48.670;9.060;2023-07-13T17:06:31;23.40;79.80
4002;DHT22;2015;48.670;9.060;2023-07-13T17:09:07;23.40;82.10
4002;DHT22;2015;48.670;9.060;2023-07-13T17:11:41;23.40;82.20
4002;DHT22;2015;48.670;9.060;2023-07-13T17:14:17;23.30;81.30
4002;DHT22;2015;48.670;9.060;2023-07-13T17:16:55;23.20;81.80
4002;DHT22;2015;48.670;9.060;2023-07-13T17:19:29;23.10;81.60
4002;DHT22;2015;48.670;9.060;2023-07-13T17:22:02;23.00;82.90
4002;DHT22;2015;48.670;9.060;2023-07-13T17:24:37;23.00;82.70
4002;DHT22;2015;48.670;9.060;2023-07-13T17:27:09;23.00;83.10
4002;DHT22;2015;48.670;9.060;2023-07-13T17:29:41;23.00;82.10